logo
Search for airport 
image banner adimage banner adimage banner ad
image banner ad

SJGU - Araguatins

Located in Araguatins, Brazil

ICAO - SJGU, IATA -

Data provided by Airmate  

General information

Coordinates: S5°41'9" W48°6'51"
Elevation is 410 feet MSL.
Magnetic variation is -20° East
View others Airports in Tocatins

Operational data

Special qualification required
Current time UTC:
Current local time:
Weather at : SBIZ - Prefeito Renato Moreira ( 75 km )
METAR: SBIZ 140500Z 36007KT 6000 TSRA SCT006 BKN011 FEW025CB 25/24 Q1011
TAF: TAF SBIZ 132132Z 1400/1412 10006KT 7000 SCT020 FEW030TCU TN25/1409Z TX27/1411Z TEMPO 1400/1405 3500 TSRA BKN020 FEW030CB RMK PGX
View NOTAMs / SUP AIP / TFR affecting this airport [VIEW]
Communications frequencies: [VIEW]

Runways:

RWY identifierQFULength (ft)Width (ft)SurfaceLDA (ft)
12162080ASPH
30162080ASPH

Airport contact information

Address: Araguatins Brazil

Satellite view of SJGU